National Weather Service United States Department of Commerce
Click Here for Latest Airport Weather Warnings
 
Latest Huntsville TAF


000
FTUS44 KHUN 231358 AAA
TAFHSV
TAF AMD
KHSV 231358Z 2314/2412 28003KT P6SM SCT016 BKN025
FM231700 30005KT P6SM VCSH BKN035
FM240300 VRB03KT 6SM -SHRA BKN050 OVC250
FM240800 VRB03KT 4SM SHRA BKN025 OVC100=

Latest Muscle Shoals TAF


000
FTUS44 KHUN 231531 AAB
TAFMSL
TAF AMD
KMSL 231531Z 2316/2412 27003KT P6SM SCT025 BKN250
FM231700 28005KT P6SM SCT035 BKN070
FM240200 VRB03KT P6SM VCSH BKN050 OVC250
FM240700 VRB03KT 4SM SHRA BKN025 OVC100=

 

Back to Main Huntsville Weather Forecast Office Page